Latest Weather Observations for Woomera

IDS60801

Issued at 10:01 am CST Friday 29 May 2015 (issued every 30 minutes, with the page automatically refreshed every 10 minutes)

About weather observations | Map of weather stations | Latest weather observations for SA | Other Formats
Station Details ID: 016001 Name: WOOMERA AERODROME Lat: -31.16 Lon: 136.81 Height: 166.6 m
Data from the previous 72 hours. | See also: Recent months at Woomera
Date/Time
CST
Temp
°C
App
Temp
°C
Dew
Point
Rel
Hum
%
Delta-T
°C
Wind Press
QNH
hPa
Press
MSL
hPa
Rain
since 9 am
mm
Dir
 
Spd
km/h
Gust
km/h
Spd
kts
Gust
kts
29/10:00am 13.4 11.5 11.7 89 0.9 SE 13 15 7 8 1024.9 - 0.0
29/09:30am 13.0 10.9 11.3 89 0.9 SE 13 15 7 8 1025.0 - 0.0
29/09:00am 12.7 10.6 11.2 91 0.8 SE 13 15 7 8 1024.7 1024.6 0.0
29/08:30am 12.3 10.5 11.0 92 0.7 ESE 11 13 6 7 1024.5 - 0.0
29/08:00am 11.8 10.4 11.0 95 0.4 SE 9 11 5 6 1024.2 - 0.0
29/07:30am 11.8 10.0 10.8 94 0.5 ESE 11 13 6 7 1023.7 - 0.0
29/07:00am 12.0 10.2 10.9 93 0.6 ESE 11 15 6 8 1023.3 - 0.0
29/06:30am 12.3 9.8 11.0 92 0.7 SE 15 17 8 9 1023.2 - 0.0
29/06:00am 12.4 10.7 11.1 92 0.7 SE 11 15 6 8 1023.2 1023.2 0.0
29/05:30am 12.7 9.8 11.0 89 0.9 SE 17 24 9 13 1022.7 - 0.0
29/05:00am 13.0 10.6 11.3 89 0.9 S 15 19 8 10 1022.9 - 0.0
29/04:30am 13.4 10.9 12.3 93 0.6 S 17 22 9 12 1022.7 - 0.0
29/04:00am 13.5 12.7 12.8 95 0.4 SSW 9 11 5 6 1022.6 - 0.0
29/03:30am 13.6 12.9 13.1 97 0.3 SSW 9 15 5 8 1022.4 - 0.0
29/03:18am 13.6 12.5 13.1 97 0.3 SSW 11 13 6 7 1022.4 - 0.0
29/03:00am 13.7 12.7 13.5 99 0.1 WSW 11 13 6 7 1022.5 1022.4 0.0
29/02:36am 13.7 13.0 13.3 97 0.2 WSW 9 9 5 5 1022.3 - 0.0
29/02:30am 13.7 13.4 13.3 97 0.2 WSW 7 9 4 5 1022.4 - 0.0
29/02:02am 13.7 13.1 13.5 99 0.1 WSW 9 11 5 6 1022.3 - 0.0
29/02:00am 13.8 13.2 13.4 97 0.2 WSW 9 11 5 6 1022.3 - 0.0
29/01:45am 13.7 14.4 13.5 99 0.1 WSW 2 7 1 4 1022.3 - 0.0
29/01:30am 13.7 14.8 13.5 99 0.1 CALM 0 6 0 3 1022.4 - 0.0
29/01:00am 13.9 13.4 13.7 99 0.1 WSW 9 13 5 7 1022.7 - 0.0
29/12:30am 14.0 13.8 13.6 97 0.2 W 7 9 4 5 1022.7 - 0.0
29/12:00am 13.9 13.9 13.5 97 0.2 NW 6 9 3 5 1022.3 1022.2 0.0
 
Date/Time
CST
Temp
°C
App
Temp
°C
Dew
Point
Rel
Hum
%
Delta-T
°C
Wind Press
QNH
hPa
Press
MSL
hPa
Rain
since 9 am
mm
Dir
 
Spd
km/h
Gust
km/h
Spd
kts
Gust
kts
28/11:42pm 14.0 13.4 13.6 97 0.2 WNW 9 11 5 6 1022.5 - 0.0
28/11:30pm 13.9 13.3 13.5 97 0.2 NW 9 9 5 5 1022.4 - 0.0
28/11:28pm 13.9 13.3 13.5 97 0.2 NW 9 9 5 5 1022.4 - 0.0
28/11:00pm 14.1 14.1 13.7 97 0.2 SW 6 7 3 4 1022.4 - 0.0
28/10:30pm 14.1 13.9 13.7 97 0.2 SW 7 9 4 5 1022.4 - 0.0
28/10:00pm 14.1 13.9 13.7 97 0.2 SW 7 9 4 5 1022.6 - 0.0
28/09:30pm 14.2 14.1 13.8 97 0.2 WSW 7 9 4 5 1022.8 - 0.0
28/09:00pm 14.2 13.3 13.8 97 0.2 WSW 11 11 6 6 1022.9 1022.9 0.0
28/08:30pm 14.3 14.2 13.8 97 0.3 WNW 7 9 4 5 1022.5 - 0.0
28/08:00pm 14.1 13.9 13.7 97 0.2 NW 7 7 4 4 1021.7 - 0.0
28/07:30pm 14.4 14.2 13.7 96 0.4 WNW 7 9 4 5 1021.7 - 0.0
28/07:00pm 14.5 14.4 13.8 96 0.4 NW 7 9 4 5 1021.4 - 0.0
28/06:30pm 14.7 14.8 14.0 96 0.4 W 6 7 3 4 1020.9 - 0.0
28/06:00pm 14.8 14.8 14.3 97 0.3 W 7 7 4 4 1020.8 1020.7 0.0
28/05:30pm 15.0 14.7 14.3 96 0.4 W 9 11 5 6 1021.0 - 0.0
28/05:14pm 15.0 14.2 14.1 94 0.5 W 11 13 6 7 1020.8 - 0.0
28/05:00pm 15.2 14.0 14.0 92 0.7 W 13 17 7 9 1020.9 - 0.0
28/04:51pm 15.4 15.1 14.5 94 0.5 W 9 11 5 6 1020.8 - 0.0
28/04:30pm 15.4 15.0 14.2 92 0.7 NW 9 11 5 6 1020.5 - 0.0
28/04:00pm 15.4 14.7 14.2 92 0.7 WNW 11 13 6 7 1020.3 - 0.0
28/03:47pm 15.4 14.6 14.0 91 0.8 WNW 11 13 6 7 1020.4 - 0.0
28/03:30pm 15.5 14.9 14.5 94 0.6 WNW 11 13 6 7 1020.4 - 0.0
28/03:26pm 15.5 14.9 14.5 94 0.6 WNW 11 15 6 8 1020.4 - 0.0
28/03:00pm 15.3 13.8 14.2 93 0.6 WNW 15 17 8 9 1020.5 1020.4 0.0
28/02:49pm 15.3 14.1 14.1 92 0.7 WNW 13 17 7 9 1020.4 - 0.0
28/02:30pm 15.4 13.9 14.3 93 0.6 WNW 15 17 8 9 1020.5 - 0.0
28/01:59pm 15.6 14.5 14.4 93 0.7 NW 13 17 7 9 1020.4 - 0.0
28/01:30pm 15.3 13.8 14.2 93 0.6 NW 15 17 8 9 1020.7 - 0.0
28/01:00pm 15.1 14.0 14.2 94 0.5 NW 13 17 7 9 1020.7 - 0.0
28/12:30pm 15.1 14.0 14.4 96 0.4 NW 13 17 7 9 1021.0 - 0.0
28/12:00pm 15.1 13.6 14.2 94 0.5 NW 15 17 8 9 1021.0 1020.9 0.0
28/11:30am 15.1 14.5 14.6 97 0.3 NW 11 15 6 8 1021.6 - 0.0
28/11:00am 14.9 13.8 14.4 97 0.3 W 13 17 7 9 1022.3 - 0.0
28/10:30am 14.8 13.6 14.1 96 0.4 WNW 13 17 7 9 1022.3 - 0.0
28/10:00am 14.6 13.1 14.1 97 0.3 WNW 15 19 8 10 1022.4 - 0.0
28/09:30am 14.4 13.1 13.7 96 0.4 WNW 13 17 7 9 1022.2 - 0.0
28/09:00am 14.3 13.0 13.6 96 0.4 NW 13 15 7 8 1021.7 1021.6 0.0
28/08:30am 14.1 13.0 13.0 93 0.6 NNW 11 15 6 8 1021.3 - 0.0
28/08:00am 13.9 12.2 12.4 91 0.8 NNW 13 17 7 9 1021.2 - 0.0
28/07:30am 13.9 12.4 11.9 88 1.1 NNW 11 13 6 7 1020.8 - 0.0
28/07:00am 13.9 12.9 10.9 82 1.6 NW 7 9 4 5 1020.7 - 0.0
28/06:30am 13.9 14.1 10.5 80 1.8 CALM 0 4 0 2 1020.1 - 0.0
28/06:00am 13.9 13.0 10.5 80 1.8 NNW 6 7 3 4 1019.7 1019.6 0.0
28/05:30am 14.2 13.2 10.2 77 2.1 NW 6 7 3 4 1019.7 - 0.0
28/05:00am 14.5 13.5 10.3 76 2.2 NNW 6 9 3 5 1019.2 - 0.0
28/04:30am 15.1 13.1 10.2 72 2.6 NNW 11 15 6 8 1019.3 - 0.0
28/04:00am 14.6 12.2 10.0 74 2.4 NNW 13 17 7 9 1019.4 - 0.0
28/03:30am 14.8 12.1 10.2 74 2.4 NNW 15 20 8 11 1019.3 - 0.0
28/03:00am 14.5 12.1 10.1 75 2.3 NW 13 17 7 9 1019.3 1019.2 0.0
28/02:30am 14.7 13.1 10.1 74 2.4 WNW 9 11 5 6 1019.3 - 0.0
28/02:00am 14.8 13.2 10.2 74 2.4 NW 9 11 5 6 1019.6 - 0.0
28/01:30am 14.7 12.7 10.1 74 2.4 NNW 11 13 6 7 1019.5 - 0.0
28/01:00am 14.5 12.8 9.7 73 2.5 NNW 9 13 5 7 1019.7 - 0.0
28/12:30am 14.6 12.0 9.4 71 2.7 N 13 15 7 8 1019.5 - 0.0
28/12:00am 15.2 12.6 9.4 68 3.0 N 13 15 7 8 1019.6 1019.5 0.0
 
Date/Time
CST
Temp
°C
App
Temp
°C
Dew
Point
Rel
Hum
%
Delta-T
°C
Wind Press
QNH
hPa
Press
MSL
hPa
Rain
since 9 am
mm
Dir
 
Spd
km/h
Gust
km/h
Spd
kts
Gust
kts
27/11:30pm 15.6 13.4 9.4 66 3.2 N 11 13 6 7 1019.9 - 0.0
27/11:00pm 16.0 13.3 9.0 63 3.6 N 13 13 7 7 1020.3 - 0.0
27/10:30pm 16.6 14.0 9.3 62 3.8 N 13 15 7 8 1020.3 - 0.0
27/10:00pm 16.8 14.5 9.1 60 4.0 N 11 15 6 8 1020.4 - 0.0
27/09:30pm 17.0 14.3 9.1 59 4.1 NNW 13 15 7 8 1020.8 - 0.0
27/09:00pm 16.6 13.9 9.1 61 3.9 N 13 15 7 8 1020.3 1020.2 0.0
27/08:30pm 16.8 14.5 8.9 59 4.1 N 11 13 6 7 1020.3 - 0.0
27/08:00pm 16.6 13.8 8.6 59 4.1 N 13 15 7 8 1020.1 - 0.0
27/07:30pm 17.0 14.2 8.4 57 4.4 N 13 15 7 8 1020.2 - 0.0
27/07:00pm 17.6 15.6 8.7 56 4.6 NNW 9 11 5 6 1020.0 - 0.0
27/06:30pm 18.5 16.1 8.7 53 5.1 NNW 11 13 6 7 1019.8 - 0.0
27/06:00pm 19.5 16.3 8.4 48 5.8 NNW 15 19 8 10 1019.8 1019.7 0.0
27/05:30pm 19.8 15.9 8.6 48 5.9 NNW 19 24 10 13 1019.6 - 0.0
27/05:00pm 20.2 16.0 8.4 46 6.2 NNW 20 24 11 13 1019.4 - 0.0
27/04:30pm 21.0 16.2 7.2 41 7.1 NNW 22 28 12 15 1019.1 - 0.0
27/04:00pm 21.5 16.9 6.4 37 7.7 NNW 20 26 11 14 1019.0 - 0.0
27/03:30pm 22.9 18.7 5.8 33 8.7 WNW 17 24 9 13 1019.2 - 0.0
27/03:00pm 22.6 17.8 5.6 33 8.6 WNW 20 26 11 14 1019.3 1019.2 0.0
27/02:30pm 22.3 17.1 5.4 33 8.5 NW 22 28 12 15 1019.4 - 0.0
27/02:00pm 22.9 18.1 5.5 32 8.8 NW 20 28 11 15 1019.6 - 0.0
27/01:30pm 22.5 17.9 5.7 33 8.5 NW 19 26 10 14 1019.9 - 0.0
27/01:00pm 21.4 17.1 5.4 35 8.0 N 17 22 9 12 1020.3 - 0.0
27/12:30pm 21.8 17.2 5.4 34 8.2 N 19 24 10 13 1020.8 - 0.0
27/12:00pm 20.9 16.8 6.0 38 7.5 NNW 17 20 9 11 1021.3 1021.2 0.0
27/11:30am 21.1 17.3 5.7 36 7.7 NNW 15 22 8 12 1021.9 - 0.0
27/11:00am 20.6 17.6 5.8 38 7.4 NNW 11 15 6 8 1022.2 - 0.0
27/10:30am 19.7 17.9 7.1 44 6.4 NNW 6 9 3 5 1022.5 - 0.0
27/10:00am 18.3 17.7 7.5 49 5.5 CALM 0 0 0 0 1022.6 - 0.0
27/09:30am 17.2 15.5 7.5 53 4.9 SW 6 7 3 4 1022.4 - 0.0
27/09:00am 17.0 16.4 7.2 52 4.9 CALM 0 0 0 0 1022.2 1022.1 0.0
27/08:30am 15.2 14.7 7.8 61 3.7 CALM 0 6 0 3 1022.0 - 0.0
27/08:00am 12.8 10.8 6.3 64 3.1 W 6 7 3 4 1022.0 - 0.0
27/07:30am 11.9 9.7 6.0 67 2.8 WSW 7 7 4 4 1021.8 - 0.0
27/07:00am 12.0 9.9 5.8 66 2.9 WSW 6 7 3 4 1021.7 - 0.0
27/06:30am 13.4 12.8 7.3 66 3.0 CALM 0 0 0 0 1021.4 - 0.0
27/06:00am 13.5 12.1 7.2 65 3.1 NNE 4 6 2 3 1021.2 1021.1 0.0
27/05:30am 14.1 12.0 6.5 60 3.7 N 7 9 4 5 1020.9 - 0.0
27/05:00am 14.0 12.0 7.1 63 3.4 N 7 7 4 4 1020.8 - 0.0
27/04:30am 14.0 11.9 6.6 61 3.6 N 7 9 4 5 1020.8 - 0.0
27/04:00am 14.5 12.4 6.7 59 3.8 N 7 9 4 5 1021.0 - 0.0
27/03:30am 14.6 12.3 5.8 55 4.2 NNE 7 9 4 5 1021.1 - 0.0
27/03:00am 14.3 12.3 6.9 61 3.6 N 7 9 4 5 1021.3 1021.2 0.0
27/02:30am 14.4 11.4 6.1 57 4.0 N 11 13 6 7 1021.4 - 0.0
27/02:00am 14.0 11.9 5.6 57 4.0 N 6 11 3 6 1021.5 - 0.0
27/01:30am 15.0 13.0 7.1 59 3.9 N 7 9 4 5 1021.6 - 0.0
27/01:00am 14.4 11.7 5.8 56 4.1 NNE 9 11 5 6 1021.8 - 0.0
27/12:30am 14.6 11.6 5.8 55 4.2 NNE 11 13 6 7 1021.9 - 0.0
27/12:00am 15.5 12.6 6.3 54 4.5 ENE 11 13 6 7 1021.9 1021.8 0.0
 
Date/Time
CST
Temp
°C
App
Temp
°C
Dew
Point
Rel
Hum
%
Delta-T
°C
Wind Press
QNH
hPa
Press
MSL
hPa
Rain
since 9 am
mm
Dir
 
Spd
km/h
Gust
km/h
Spd
kts
Gust
kts
26/11:30pm 15.5 12.9 6.3 54 4.5 ENE 9 11 5 6 1022.2 - 0.0
26/11:00pm 16.3 14.2 6.6 52 4.8 E 7 9 4 5 1022.5 - 0.0
26/10:30pm 16.8 14.7 6.5 50 5.1 NE 7 9 4 5 1022.5 - 0.0
26/10:00pm 17.6 15.5 6.5 48 5.5 N 7 7 4 4 1022.5 - 0.0
26/09:30pm 17.0 14.8 6.2 49 5.3 N 7 7 4 4 1022.3 - 0.0
26/09:00pm 17.9 15.7 6.4 47 5.7 N 7 9 4 5 1022.5 1022.4 0.0
26/08:30pm 18.2 15.6 6.3 45 5.9 NNW 9 9 5 5 1022.5 - 0.0
26/08:00pm 18.3 16.4 7.5 49 5.5 NW 7 9 4 5 1022.4 - 0.0
26/07:30pm 18.7 16.3 6.8 46 6.0 NW 9 11 5 6 1022.3 - 0.0
26/07:00pm 19.3 16.7 6.3 42 6.5 NNW 9 11 5 6 1022.3 - 0.0
26/06:30pm 20.0 17.0 6.0 40 7.0 NNW 11 13 6 7 1022.2 - 0.0
26/06:00pm 20.4 17.4 6.0 39 7.2 NNW 11 13 6 7 1022.1 1022.0 0.0
26/05:30pm 21.0 17.9 5.6 36 7.7 N 11 13 6 7 1021.8 - 0.0
26/05:00pm 21.5 17.9 5.2 34 8.1 N 13 19 7 10 1021.7 - 0.0
26/04:30pm 21.7 18.2 5.5 34 8.1 NNW 13 17 7 9 1021.7 - 0.0
26/04:00pm 22.1 18.8 6.2 35 8.1 NNW 13 19 7 10 1021.5 - 0.0
26/03:30pm 22.1 18.7 5.9 35 8.2 NW 13 19 7 10 1021.6 - 0.0
26/03:00pm 22.1 18.7 5.9 35 8.2 NNW 13 17 7 9 1021.7 1021.6 0.0
26/02:30pm 22.0 17.9 6.0 35 8.1 NNW 17 22 9 12 1021.8 - 0.0
26/02:00pm 22.4 18.7 6.1 34 8.3 NNW 15 20 8 11 1022.0 - 0.0
26/01:30pm 22.0 18.3 6.3 36 8.0 WNW 15 17 8 9 1022.5 - 0.0
26/01:00pm 21.6 17.1 5.9 36 7.9 N 19 26 10 14 1023.0 - 0.0
26/12:30pm 21.4 17.2 5.9 36 7.8 N 17 28 9 15 1023.5 - 0.0
26/12:00pm 22.0 17.2 4.8 32 8.5 N 19 24 10 13 1024.0 1023.9 0.0
26/11:30am 20.9 16.1 4.8 35 7.9 NNW 19 24 10 13 1024.7 - 0.0
26/11:00am 20.6 15.7 4.3 34 7.9 N 19 24 10 13 1025.1 - 0.0
26/10:30am 19.5 15.1 4.6 37 7.2 N 17 22 9 12 1025.1 - 0.0

Other Formats:

Comma delimited format used in spreadsheet applications
http://www.bom.gov.au/fwo/IDS60801/IDS60801.94659.axf

JavaScript Object Notation format (JSON) in row-major order
http://www.bom.gov.au/fwo/IDS60801/IDS60801.94659.json